Perry, Missouri
Current Conditions -  °F | °C
As of 1:54 PM on Sunday 23 Nov 2014 (Local Time) from KUIN Reporting Station
Light Rain Light Rain  
Wind Chill: 53°   Ceiling: 600
Heat Index: 53°   Visibility: 4mi
Dew Point: 52°   Wind: 9mph
Humidity: 96%   Direction: 170°S
Pressure: 29.39"   Gusts: NA
Location:  39.43°N, 91.68°W
Report Text: KUIN 231954Z AUTO 17008KT 4SM -RA BR OVC006 12/11 A2939 RMK AO2 SLP951 P0003 T01170111
Loading
Personal Weather Stations






























Interactive Weather Map New forecast layout! Learn more

10-Day Weather Forecast

Advertisements
Track Severe Weather on mobile